National Weather Service United States Department of Commerce

Airport Observations and Forecasts (from NWS CLE)

Cleveland Hopkins International Airport

 

FAA details


000
FTUS41 KCLE 282340
TAFCLE
TAF
KCLE 282340Z 2900/3006 VRB04KT P6SM FEW050
FM291000 19006KT P6SM VCTS SCT035CB OVC100
TEMPO 2912/2915 VRB20G40KT 2SM TSRA BKN025CB
FM291600 23010KT P6SM BKN035
FM291800 26010G20KT P6SM BKN025
FM292100 31010KT P6SM SCT040=

24 hours of observations

7-day forecast

Hourly - Tabular forecast  Hourly - Graph forecast

Terminal Information Board

Toledo Express Airport

 

FAA details


330
FTUS41 KCLE 282340
TAFTOL
TAF
KTOL 282340Z 2900/2924 00000KT P6SM SCT040
FM290600 VRB03KT P6SM VCTS SCT040CB OVC100
TEMPO 2909/2912 VRB20G40KT 2SM TSRA BKN025CB OVC035
FM291500 25012G20KT P6SM BKN025
FM291900 29012KT P6SM SCT025 BKN040=

24 hours of observations

7-day forecast

Hourly - Tabular forecast  Hourly - Graph forecast

Terminal Information Board

Findlay Airport

 

FAA details


000
FTUS41 KCLE 282340
TAFFDY
TAF
KFDY 282340Z 2900/2924 00000KT P6SM VCTS SCT040CB
FM290300 VRB03KT P6SM FEW040 SCT250
FM290900 22005KT P6SM VCTS SCT040CB OVC080
FM291400 25012G22KT P6SM SCT030 BKN060
FM292200 31010KT P6SM FEW020 SCT050=

24 hours of observations

7-day forecast

Hourly - Tabular forecast   Hourly - Graph forecast

Terminal Information Board

Mansfield Lahm Airport

 

FAA details


333
FTUS41 KCLE 282340
TAFMFD
TAF
KMFD 282340Z 2900/2924 VRB03KT P6SM FEW050 SCT250
FM290900 21006KT P6SM SCT040 OVC110
FM291200 23008KT P6SM VCTS SCT030CB OVC050
TEMPO 2912/2915 VRB20G40KT 2SM TSRA BKN025CB
FM291600 24010G18KT P6SM BKN040=

24 hours of observations

7-day forecast

Hourly - Tabular forecast   Hourly - Graph forecast

Terminal Information Board

Akron-Canton Airport

 

FAA details


000
FTUS41 KCLE 282340
TAFCAK
TAF
KCAK 282340Z 2900/2924 VRB04KT P6SM FEW050
FM291100 21008KT P6SM VCTS SCT025CB OVC035
TEMPO 2913/2916 VRB20G40KT 2SM TSRA BKN025CB
FM291700 24010G19KT P6SM BKN035
FM292000 28012KT P6SM VCTS SCT015CB BKN025
FM292200 29010KT P6SM SCT015 BKN035=

24 hours of observations

7-day forecast

Hourly - Tabular forecast   Hourly - Graph forecast

Terminal Information Board

Youngstown-Warren Regional Airport

 

FAA details


000
FTUS41 KCLE 282340
TAFYNG
TAF
KYNG 282340Z 2900/2924 VRB04KT P6SM FEW040
FM291200 20008KT P6SM VCTS SCT025CB OVC050
TEMPO 2912/2916 VRB20G40KT 2SM TSRA BKN025CB
FM291800 24008KT P6SM SCT015 OVC035
FM292000 28008KT P6SM VCTS SCT015CB BKN025=

24 hours of observations

7-day forecast

Hourly - Tabular forecast   Hourly - Graph forecast

Terminal Information Board

Erie International Airport

 

FAA details


332
FTUS41 KCLE 282340
TAFERI
TAF
KERI 282340Z 2900/2924 05005KT P6SM FEW050
FM290900 17008KT P6SM SCT070 BKN250
FM291200 19009KT P6SM VCTS SCT025CB OVC050
TEMPO 2912/2916 VRB20G40KT BKN025CB
FM291800 23008KT P6SM OVC025
FM292000 26008KT P6SM SCT025 BKN035=

24 hours of observations

7-day forecast

Hourly - Tabular Forecast  Hourly - Graph forecast

Terminal Information Board

The National Weather Service is Cleveland is responsible for the Terminal Areodome Forecasts for seven area airports in northern Ohio and northwest Pennsylvania.  Routine issuance times are by 00Z, 06Z, 12Z, and 18Z with amendments, as needed.

Latest Surface Analysis

Additional Current Conditions

Satellite

Radar
 
 

 

Center Weather Service Unit, Oberlin/ZOB

CWA/MIS    

 

The National Weather Service Center Weather Service Unit in Oberlin is responsible for the airspace above northern Ohio and northwest Pennsylvania and ajoining areas.

 

Aviaiton Weather Center National, AWC

AIRMETS & SIGMETS